Florence, Arizona
Current Conditions -  °F | °C
As of 6:35 PM on Tuesday 25 Nov 2014 (Local Time) from KCGZ Reporting Station
Clear Clear  
Wind Chill: 55°   Ceiling: Unl
Heat Index: 55°   Visibility: 10mi
Dew Point:   Wind: 0mph
Humidity: 11%   Direction: NA
Pressure: 30.31"   Gusts: NA
Location:  33.03°N, 111.38°W
Report Text: KCGZ 260135Z AUTO 00000KT 10SM CLR 13/M17 A3031 RMK AO1
Loading
Personal Weather Stations






























Interactive Weather Map New forecast layout! Learn more

10-Day Weather Forecast

Advertisements
Track Severe Weather on mobile